sensor_id;sensor_type;location;lat;lon;timestamp;pressure;altitude;pressure_sealevel;temperature;humidity
15750;BME280;7976;52.526;13.326;2023-04-21T00:00:58;101557.66;;;13.02;74.13
15750;BME280;7976;52.526;13.326;2023-04-21T00:03:25;101554.22;;;12.98;74.21
15750;BME280;7976;52.526;13.326;2023-04-21T00:05:55;101562.22;;;12.95;74.13
15750;BME280;7976;52.526;13.326;2023-04-21T00:08:24;101557.06;;;12.92;74.52
15750;BME280;7976;52.526;13.326;2023-04-21T00:10:52;101560.66;;;12.90;74.25
15750;BME280;7976;52.526;13.326;2023-04-21T00:13:20;101554.63;;;12.86;74.34
15750;BME280;7976;52.526;13.326;2023-04-21T00:15:47;101555.63;;;12.84;74.72
15750;BME280;7976;52.526;13.326;2023-04-21T00:18:14;101552.16;;;12.82;74.51
15750;BME280;7976;52.526;13.326;2023-04-21T00:20:41;101560.16;;;12.79;74.79
15750;BME280;7976;52.526;13.326;2023-04-21T00:23:08;101552.38;;;12.76;75.02
15750;BME280;7976;52.526;13.326;2023-04-21T00:25:36;101552.47;;;12.73;74.81
15750;BME280;7976;52.526;13.326;2023-04-21T00:28:03;101551.72;;;12.69;74.96
15750;BME280;7976;52.526;13.326;2023-04-21T00:30:31;101553.50;;;12.69;75.05
15750;BME280;7976;52.526;13.326;2023-04-21T00:32:58;101550.09;;;12.65;74.97
15750;BME280;7976;52.526;13.326;2023-04-21T00:35:25;101563.28;;;12.63;74.98
15750;BME280;7976;52.526;13.326;2023-04-21T00:37:53;101552.88;;;12.60;75.12
15750;BME280;7976;52.526;13.326;2023-04-21T00:40:20;101538.94;;;12.58;74.80
15750;BME280;7976;52.526;13.326;2023-04-21T00:42:47;101539.03;;;12.55;75.14
15750;BME280;7976;52.526;13.326;2023-04-21T00:45:14;101543.53;;;12.52;75.28
15750;BME280;7976;52.526;13.326;2023-04-21T00:47:42;101541.84;;;12.49;75.40
15750;BME280;7976;52.526;13.326;2023-04-21T00:50:11;101537.63;;;12.45;75.20
15750;BME280;7976;52.526;13.326;2023-04-21T00:52:39;101538.50;;;12.44;75.36
15750;BME280;7976;52.526;13.326;2023-04-21T00:55:08;101535.06;;;12.42;75.24
15750;BME280;7976;52.526;13.326;2023-04-21T00:57:36;101543.00;;;12.41;75.11
15750;BME280;7976;52.526;13.326;2023-04-21T01:00:05;101536.97;;;12.39;75.24
15750;BME280;7976;52.526;13.326;2023-04-21T01:02:35;101535.28;;;12.36;75.20
15750;BME280;7976;52.526;13.326;2023-04-21T01:05:05;101539.72;;;12.34;74.97
15750;BME280;7976;52.526;13.326;2023-04-21T01:07:33;101537.19;;;12.31;75.29
15750;BME280;7976;52.526;13.326;2023-04-21T01:10:00;101538.19;;;12.27;75.03
15750;BME280;7976;52.526;13.326;2023-04-21T01:12:29;101542.59;;;12.27;74.99
15750;BME280;7976;52.526;13.326;2023-04-21T01:14:58;101540.03;;;12.25;74.98
15750;BME280;7976;52.526;13.326;2023-04-21T01:17:25;101539.25;;;12.22;74.94
15750;BME280;7976;52.526;13.326;2023-04-21T01:19:55;101542.75;;;12.21;74.76
15750;BME280;7976;52.526;13.326;2023-04-21T01:22:24;101545.44;;;12.19;74.69
15750;BME280;7976;52.526;13.326;2023-04-21T01:24:51;101534.94;;;12.19;74.37
15750;BME280;7976;52.526;13.326;2023-04-21T01:27:19;101533.22;;;12.18;74.27
15750;BME280;7976;52.526;13.326;2023-04-21T01:29:49;101525.38;;;12.18;73.57
15750;BME280;7976;52.526;13.326;2023-04-21T01:32:20;101523.59;;;12.19;73.41
15750;BME280;7976;52.526;13.326;2023-04-21T01:34:48;101527.97;;;12.18;73.08
15750;BME280;7976;52.526;13.326;2023-04-21T01:37:19;101530.59;;;12.18;73.30
15750;BME280;7976;52.526;13.326;2023-04-21T01:39:52;101527.16;;;12.16;73.17
15750;BME280;7976;52.526;13.326;2023-04-21T01:42:21;101521.06;;;12.16;73.02
15750;BME280;7976;52.526;13.326;2023-04-21T01:44:49;101522.88;;;12.14;73.02
15750;BME280;7976;52.526;13.326;2023-04-21T01:47:18;101512.41;;;12.12;72.88
15750;BME280;7976;52.526;13.326;2023-04-21T01:49:45;101522.91;;;12.12;72.75
15750;BME280;7976;52.526;13.326;2023-04-21T01:52:12;101517.75;;;12.09;72.60
15750;BME280;7976;52.526;13.326;2023-04-21T01:54:39;101521.31;;;12.08;72.35
15750;BME280;7976;52.526;13.326;2023-04-21T01:57:07;101519.56;;;12.07;72.29
15750;BME280;7976;52.526;13.326;2023-04-21T01:59:35;101518.72;;;12.07;72.31
15750;BME280;7976;52.526;13.326;2023-04-21T02:02:02;101512.63;;;12.06;72.13
15750;BME280;7976;52.526;13.326;2023-04-21T02:04:32;101513.53;;;12.05;72.03
15750;BME280;7976;52.526;13.326;2023-04-21T02:06:59;101512.72;;;12.03;71.93
15750;BME280;7976;52.526;13.326;2023-04-21T02:09:26;101506.59;;;12.03;71.89
15750;BME280;7976;52.526;13.326;2023-04-21T02:11:55;101507.47;;;12.03;71.70
15750;BME280;7976;52.526;13.326;2023-04-21T02:14:24;101506.59;;;12.03;71.83
15750;BME280;7976;52.526;13.326;2023-04-21T02:16:51;101503.16;;;12.01;71.77
15750;BME280;7976;52.526;13.326;2023-04-21T02:19:18;101502.38;;;11.97;71.42
15750;BME280;7976;52.526;13.326;2023-04-21T02:21:45;101497.16;;;11.97;71.55
15750;BME280;7976;52.526;13.326;2023-04-21T02:24:12;101494.56;;;11.96;71.44
15750;BME280;7976;52.526;13.326;2023-04-21T02:26:39;101498.16;;;11.93;71.41
15750;BME280;7976;52.526;13.326;2023-04-21T02:29:06;101493.81;;;11.92;71.60
15750;BME280;7976;52.526;13.326;2023-04-21T02:31:34;101493.91;;;11.89;71.29
15750;BME280;7976;52.526;13.326;2023-04-21T02:34:01;101497.44;;;11.88;71.48
15750;BME280;7976;52.526;13.326;2023-04-21T02:36:28;101504.50;;;11.86;71.59
15750;BME280;7976;52.526;13.326;2023-04-21T02:38:56;101505.41;;;11.85;71.34
15750;BME280;7976;52.526;13.326;2023-04-21T02:41:23;101494.16;;;11.82;71.38
15750;BME280;7976;52.526;13.326;2023-04-21T02:43:50;101501.16;;;11.81;71.41
15750;BME280;7976;52.526;13.326;2023-04-21T02:46:17;101500.31;;;11.79;70.92
15750;BME280;7976;52.526;13.326;2023-04-21T02:48:45;101505.63;;;11.78;71.20
15750;BME280;7976;52.526;13.326;2023-04-21T02:51:12;101500.47;;;11.75;71.17
15750;BME280;7976;52.526;13.326;2023-04-21T02:53:41;101504.00;;;11.74;70.99
15750;BME280;7976;52.526;13.326;2023-04-21T02:56:08;101504.03;;;11.72;71.06
15750;BME280;7976;52.526;13.326;2023-04-21T02:58:35;101496.22;;;11.71;70.86
15750;BME280;7976;52.526;13.326;2023-04-21T03:01:03;101503.25;;;11.70;70.88
15750;BME280;7976;52.526;13.326;2023-04-21T03:03:31;101491.94;;;11.68;70.45
15750;BME280;7976;52.526;13.326;2023-04-21T03:06:02;101501.56;;;11.68;70.72
15750;BME280;7976;52.526;13.326;2023-04-21T03:08:30;101495.50;;;11.66;70.64
15750;BME280;7976;52.526;13.326;2023-04-21T03:10:58;101488.56;;;11.63;70.60
15750;BME280;7976;52.526;13.326;2023-04-21T03:13:25;101492.09;;;11.61;70.78
15750;BME280;7976;52.526;13.326;2023-04-21T03:15:52;101495.66;;;11.60;70.99
15750;BME280;7976;52.526;13.326;2023-04-21T03:18:19;101492.22;;;11.58;70.47
15750;BME280;7976;52.526;13.326;2023-04-21T03:20:45;101496.63;;;11.56;70.92
15750;BME280;7976;52.526;13.326;2023-04-21T03:23:13;101497.59;;;11.53;70.80
15750;BME280;7976;52.526;13.326;2023-04-21T03:25:41;101487.19;;;11.50;70.86
15750;BME280;7976;52.526;13.326;2023-04-21T03:28:08;101490.75;;;11.48;70.82
15750;BME280;7976;52.526;13.326;2023-04-21T03:30:35;101495.13;;;11.47;70.70
15750;BME280;7976;52.526;13.326;2023-04-21T03:33:02;101493.41;;;11.46;70.61
15750;BME280;7976;52.526;13.326;2023-04-21T03:35:31;101491.78;;;11.42;70.93
15750;BME280;7976;52.526;13.326;2023-04-21T03:37:58;101495.31;;;11.41;71.09
15750;BME280;7976;52.526;13.326;2023-04-21T03:40:27;101497.06;;;11.40;71.08
15750;BME280;7976;52.526;13.326;2023-04-21T03:42:53;101491.03;;;11.37;71.11
15750;BME280;7976;52.526;13.326;2023-04-21T03:45:20;101493.72;;;11.35;71.04
15750;BME280;7976;52.526;13.326;2023-04-21T03:47:52;101491.13;;;11.34;70.97
15750;BME280;7976;52.526;13.326;2023-04-21T03:50:19;101496.38;;;11.34;71.06
15750;BME280;7976;52.526;13.326;2023-04-21T03:52:46;101489.47;;;11.31;70.92
15750;BME280;7976;52.526;13.326;2023-04-21T03:55:12;101489.53;;;11.30;71.02
15750;BME280;7976;52.526;13.326;2023-04-21T03:57:41;101495.66;;;11.29;71.05
15750;BME280;7976;52.526;13.326;2023-04-21T04:00:10;101495.75;;;11.26;70.96
15750;BME280;7976;52.526;13.326;2023-04-21T04:02:40;101490.50;;;11.26;71.12
15750;BME280;7976;52.526;13.326;2023-04-21T04:05:07;101489.63;;;11.25;71.06
15750;BME280;7976;52.526;13.326;2023-04-21T04:07:34;101501.03;;;11.24;70.99
15750;BME280;7976;52.526;13.326;2023-04-21T04:10:01;101499.28;;;11.25;70.94
15750;BME280;7976;52.526;13.326;2023-04-21T04:12:28;101502.78;;;11.24;71.00
15750;BME280;7976;52.526;13.326;2023-04-21T04:14:56;101495.84;;;11.23;71.01
15750;BME280;7976;52.526;13.326;2023-04-21T04:17:23;101497.63;;;11.21;71.18
15750;BME280;7976;52.526;13.326;2023-04-21T04:19:50;101498.50;;;11.21;71.10
15750;BME280;7976;52.526;13.326;2023-04-21T04:22:17;101510.69;;;11.22;71.01
15750;BME280;7976;52.526;13.326;2023-04-21T04:24:43;101504.66;;;11.19;71.02
15750;BME280;7976;52.526;13.326;2023-04-21T04:27:10;101510.78;;;11.19;71.10
15750;BME280;7976;52.526;13.326;2023-04-21T04:29:39;101508.16;;;11.19;70.91
15750;BME280;7976;52.526;13.326;2023-04-21T04:32:08;101505.53;;;11.19;71.08
15750;BME280;7976;52.526;13.326;2023-04-21T04:34:35;101504.66;;;11.19;71.25
15750;BME280;7976;52.526;13.326;2023-04-21T04:37:02;101512.53;;;11.19;71.06
15750;BME280;7976;52.526;13.326;2023-04-21T04:39:29;101511.66;;;11.20;70.99
15750;BME280;7976;52.526;13.326;2023-04-21T04:41:57;101504.66;;;11.19;71.06
15750;BME280;7976;52.526;13.326;2023-04-21T04:44:23;101510.78;;;11.19;71.03
15750;BME280;7976;52.526;13.326;2023-04-21T04:46:51;101514.25;;;11.20;71.12
15750;BME280;7976;52.526;13.326;2023-04-21T04:49:19;101515.16;;;11.19;70.85
15750;BME280;7976;52.526;13.326;2023-04-21T04:51:46;101518.69;;;11.18;70.85
15750;BME280;7976;52.526;13.326;2023-04-21T04:54:24;101509.06;;;11.18;70.75
15750;BME280;7976;52.526;13.326;2023-04-21T04:57:01;101515.16;;;11.19;70.82
15750;BME280;7976;52.526;13.326;2023-04-21T04:59:29;101521.22;;;11.21;70.80
15750;BME280;7976;52.526;13.326;2023-04-21T05:01:56;101517.69;;;11.22;70.90
15750;BME280;7976;52.526;13.326;2023-04-21T05:04:24;101515.94;;;11.22;70.74
15750;BME280;7976;52.526;13.326;2023-04-21T05:06:51;101516.75;;;11.24;70.58
15750;BME280;7976;52.526;13.326;2023-04-21T05:09:17;101522.81;;;11.26;70.54
15750;BME280;7976;52.526;13.326;2023-04-21T05:11:44;101523.63;;;11.28;70.48
15750;BME280;7976;52.526;13.326;2023-04-21T05:14:11;101521.75;;;11.32;70.39
15750;BME280;7976;52.526;13.326;2023-04-21T05:16:38;101527.81;;;11.34;70.26
15750;BME280;7976;52.526;13.326;2023-04-21T05:19:04;101526.06;;;11.34;70.15
15750;BME280;7976;52.526;13.326;2023-04-21T05:21:33;101524.19;;;11.39;70.05
15750;BME280;7976;52.526;13.326;2023-04-21T05:24:00;101524.97;;;11.43;69.99
15750;BME280;7976;52.526;13.326;2023-04-21T05:26:28;101521.44;;;11.44;69.81
15750;BME280;7976;52.526;13.326;2023-04-21T05:28:56;101525.75;;;11.47;69.82
15750;BME280;7976;52.526;13.326;2023-04-21T05:31:24;101523.91;;;11.50;69.53
15750;BME280;7976;52.526;13.326;2023-04-21T05:33:51;101523.81;;;11.53;69.95
15750;BME280;7976;52.526;13.326;2023-04-21T05:36:18;101526.34;;;11.56;69.42
15750;BME280;7976;52.526;13.326;2023-04-21T05:38:46;101523.66;;;11.58;69.18
15750;BME280;7976;52.526;13.326;2023-04-21T05:41:13;101525.31;;;11.62;69.29
15750;BME280;7976;52.526;13.326;2023-04-21T05:43:40;101524.38;;;11.64;68.95
15750;BME280;7976;52.526;13.326;2023-04-21T05:46:08;101519.03;;;11.67;68.73
15750;BME280;7976;52.526;13.326;2023-04-21T05:48:35;101526.78;;;11.72;68.76
15750;BME280;7976;52.526;13.326;2023-04-21T05:51:08;101524.91;;;11.77;68.49
15750;BME280;7976;52.526;13.326;2023-04-21T05:53:36;101529.06;;;11.82;68.33
15750;BME280;7976;52.526;13.326;2023-04-21T05:56:06;101526.28;;;11.88;68.26
15750;BME280;7976;52.526;13.326;2023-04-21T05:58:34;101523.53;;;11.93;67.51
15750;BME280;7976;52.526;13.326;2023-04-21T06:01:01;101526.00;;;11.97;67.66
15750;BME280;7976;52.526;13.326;2023-04-21T06:03:30;101521.56;;;11.99;67.23
15750;BME280;7976;52.526;13.326;2023-04-21T06:05:59;101531.03;;;12.05;67.30
15750;BME280;7976;52.526;13.326;2023-04-21T06:08:26;101516.00;;;12.10;67.10
15750;BME280;7976;52.526;13.326;2023-04-21T06:10:53;101515.84;;;12.14;66.92
15750;BME280;7976;52.526;13.326;2023-04-21T06:13:21;101515.69;;;12.20;66.52
15750;BME280;7976;52.526;13.326;2023-04-21T06:15:48;101510.28;;;12.25;66.29
15750;BME280;7976;52.526;13.326;2023-04-21T06:18:15;101517.88;;;12.34;66.19
15750;BME280;7976;52.526;13.326;2023-04-21T06:20:49;101509.75;;;12.41;66.00
15750;BME280;7976;52.526;13.326;2023-04-21T06:23:17;101510.41;;;12.48;65.49
15750;BME280;7976;52.526;13.326;2023-04-21T06:25:43;101507.53;;;12.55;65.69
15750;BME280;7976;52.526;13.326;2023-04-21T06:28:11;101507.22;;;12.64;65.14
15750;BME280;7976;52.526;13.326;2023-04-21T06:30:39;101508.63;;;12.75;65.27
15750;BME280;7976;52.526;13.326;2023-04-21T06:33:06;101500.44;;;12.84;64.95
15750;BME280;7976;52.526;13.326;2023-04-21T06:35:33;101496.75;;;12.89;64.42
15750;BME280;7976;52.526;13.326;2023-04-21T06:38:00;101492.25;;;12.93;63.92
15750;BME280;7976;52.526;13.326;2023-04-21T06:40:27;101498.22;;;12.98;63.77
15750;BME280;7976;52.526;13.326;2023-04-21T06:42:54;101502.34;;;13.05;63.85
15750;BME280;7976;52.526;13.326;2023-04-21T06:45:22;101495.09;;;13.11;63.17
15750;BME280;7976;52.526;13.326;2023-04-21T06:47:50;101494.03;;;13.17;62.94
15750;BME280;7976;52.526;13.326;2023-04-21T06:50:17;101490.13;;;13.28;62.97
15750;BME280;7976;52.526;13.326;2023-04-21T06:52:44;101486.25;;;13.38;62.53
15750;BME280;7976;52.526;13.326;2023-04-21T06:55:11;101492.94;;;13.47;62.53
15750;BME280;7976;52.526;13.326;2023-04-21T06:57:38;101484.84;;;13.53;61.84
15750;BME280;7976;52.526;13.326;2023-04-21T07:00:06;101488.88;;;13.61;61.68
15750;BME280;7976;52.526;13.326;2023-04-21T07:02:34;101485.16;;;13.67;61.04
15750;BME280;7976;52.526;13.326;2023-04-21T07:05:02;101480.41;;;13.76;61.25
15750;BME280;7976;52.526;13.326;2023-04-21T07:07:29;101478.28;;;13.86;60.73
15750;BME280;7976;52.526;13.326;2023-04-21T07:09:56;101478.03;;;13.92;60.61
15750;BME280;7976;52.526;13.326;2023-04-21T07:12:23;101488.22;;;14.01;60.42
15750;BME280;7976;52.526;13.326;2023-04-21T07:14:50;101485.13;;;14.13;59.97
15750;BME280;7976;52.526;13.326;2023-04-21T07:17:16;101473.41;;;14.20;59.53
15750;BME280;7976;52.526;13.326;2023-04-21T07:19:43;101480.25;;;14.24;59.10
15750;BME280;7976;52.526;13.326;2023-04-21T07:22:12;101479.94;;;14.33;59.02
15750;BME280;7976;52.526;13.326;2023-04-21T07:24:39;101479.47;;;14.44;59.06
15750;BME280;7976;52.526;13.326;2023-04-21T07:27:07;101483.44;;;14.54;58.49
15750;BME280;7976;52.526;13.326;2023-04-21T07:29:34;101475.25;;;14.61;58.63
15750;BME280;7976;52.526;13.326;2023-04-21T07:32:01;101475.69;;;14.71;58.39
15750;BME280;7976;52.526;13.326;2023-04-21T07:34:29;101472.75;;;14.78;58.14
15750;BME280;7976;52.526;13.326;2023-04-21T07:36:56;101468.91;;;14.85;57.72
15750;BME280;7976;52.526;13.326;2023-04-21T07:39:24;101473.81;;;14.94;57.18
15750;BME280;7976;52.526;13.326;2023-04-21T07:41:51;101474.31;;;15.02;56.88
15750;BME280;7976;52.526;13.326;2023-04-21T07:44:18;101481.03;;;15.09;56.65
15750;BME280;7976;52.526;13.326;2023-04-21T07:46:45;101474.59;;;15.17;56.21
15750;BME280;7976;52.526;13.326;2023-04-21T07:49:12;101477.94;;;15.20;55.64
15750;BME280;7976;52.526;13.326;2023-04-21T07:51:39;101469.03;;;15.23;55.70
15750;BME280;7976;52.526;13.326;2023-04-21T07:54:06;101474.03;;;15.29;55.36
15750;BME280;7976;52.526;13.326;2023-04-21T07:56:34;101476.31;;;15.36;54.96
15750;BME280;7976;52.526;13.326;2023-04-21T07:59:00;101477.66;;;15.46;55.40
15750;BME280;7976;52.526;13.326;2023-04-21T08:01:27;101476.47;;;15.53;55.00
15750;BME280;7976;52.526;13.326;2023-04-21T08:03:54;101462.91;;;15.61;55.03
15750;BME280;7976;52.526;13.326;2023-04-21T08:06:26;101477.38;;;15.71;54.75
15750;BME280;7976;52.526;13.326;2023-04-21T08:08:53;101470.19;;;15.74;54.50
15750;BME280;7976;52.526;13.326;2023-04-21T08:11:21;101468.06;;;15.82;54.35
15750;BME280;7976;52.526;13.326;2023-04-21T08:13:49;101474.53;;;15.94;53.92
15750;BME280;7976;52.526;13.326;2023-04-21T08:16:16;101468.88;;;16.01;53.32
15750;BME280;7976;52.526;13.326;2023-04-21T08:18:43;101472.09;;;16.08;53.64
15750;BME280;7976;52.526;13.326;2023-04-21T08:21:09;101448.78;;;16.16;53.68
15750;BME280;7976;52.526;13.326;2023-04-21T08:23:36;101460.84;;;16.21;53.21
15750;BME280;7976;52.526;13.326;2023-04-21T08:26:03;101462.34;;;16.27;53.05
15750;BME280;7976;52.526;13.326;2023-04-21T08:28:30;101456.75;;;16.33;52.80
15750;BME280;7976;52.526;13.326;2023-04-21T08:30:58;101459.19;;;16.38;52.64
15750;BME280;7976;52.526;13.326;2023-04-21T08:33:26;101455.38;;;16.43;52.90
15750;BME280;7976;52.526;13.326;2023-04-21T08:35:53;101452.47;;;16.49;52.97
15750;BME280;7976;52.526;13.326;2023-04-21T08:38:20;101446.72;;;16.58;52.43
15750;BME280;7976;52.526;13.326;2023-04-21T08:40:47;101458.53;;;16.68;52.27
15750;BME280;7976;52.526;13.326;2023-04-21T08:43:14;101448.66;;;16.72;52.32
15750;BME280;7976;52.526;13.326;2023-04-21T08:45:42;101449.19;;;16.78;51.88
15750;BME280;7976;52.526;13.326;2023-04-21T08:48:13;101440.88;;;16.86;51.59
15750;BME280;7976;52.526;13.326;2023-04-21T08:50:44;101449.19;;;16.95;51.70
15750;BME280;7976;52.526;13.326;2023-04-21T08:53:14;101444.50;;;17.00;51.25
15750;BME280;7976;52.526;13.326;2023-04-21T08:55:42;101445.03;;;17.07;50.70
15750;BME280;7976;52.526;13.326;2023-04-21T08:58:09;101444.47;;;17.17;50.90
15750;BME280;7976;52.526;13.326;2023-04-21T09:00:38;101443.06;;;17.27;50.56
15750;BME280;7976;52.526;13.326;2023-04-21T09:03:06;101441.72;;;17.36;49.54
15750;BME280;7976;52.526;13.326;2023-04-21T09:05:34;101436.94;;;17.42;49.32
15750;BME280;7976;52.526;13.326;2023-04-21T09:08:12;101447.22;;;17.48;49.05
15750;BME280;7976;52.526;13.326;2023-04-21T09:10:45;101444.47;;;17.50;48.81
15750;BME280;7976;52.526;13.326;2023-04-21T09:13:14;101450.38;;;17.55;49.41
15750;BME280;7976;52.526;13.326;2023-04-21T09:15:45;101436.75;;;17.63;49.31
15750;BME280;7976;52.526;13.326;2023-04-21T09:18:14;101435.63;;;17.67;49.44
15750;BME280;7976;52.526;13.326;2023-04-21T09:20:44;101448.53;;;17.73;49.14
15750;BME280;7976;52.526;13.326;2023-04-21T09:23:12;101442.88;;;17.79;48.55
15750;BME280;7976;52.526;13.326;2023-04-21T09:25:41;101442.06;;;17.78;48.81
15750;BME280;7976;52.526;13.326;2023-04-21T09:28:10;101457.69;;;17.83;48.57
15750;BME280;7976;52.526;13.326;2023-04-21T09:30:39;101443.31;;;17.87;49.19
15750;BME280;7976;52.526;13.326;2023-04-21T09:33:07;101437.31;;;17.99;49.13
15750;BME280;7976;52.526;13.326;2023-04-21T09:35:36;101446.66;;;18.06;49.13
15750;BME280;7976;52.526;13.326;2023-04-21T09:38:10;101430.56;;;18.09;49.59
15750;BME280;7976;52.526;13.326;2023-04-21T09:40:37;101438.00;;;18.18;49.55
15750;BME280;7976;52.526;13.326;2023-04-21T09:43:05;101435.94;;;18.23;49.60
15750;BME280;7976;52.526;13.326;2023-04-21T09:45:32;101434.06;;;18.25;49.40
15750;BME280;7976;52.526;13.326;2023-04-21T09:48:00;101431.81;;;18.33;49.38
15750;BME280;7976;52.526;13.326;2023-04-21T09:50:28;101428.78;;;18.39;49.20
15750;BME280;7976;52.526;13.326;2023-04-21T09:52:57;101429.41;;;18.44;48.69
15750;BME280;7976;52.526;13.326;2023-04-21T09:55:30;101425.16;;;18.41;48.13
15750;BME280;7976;52.526;13.326;2023-04-21T09:57:59;101432.06;;;18.44;47.80
15750;BME280;7976;52.526;13.326;2023-04-21T10:00:28;101426.66;;;18.45;47.47
15750;BME280;7976;52.526;13.326;2023-04-21T10:02:57;101429.09;;;18.50;47.52
15750;BME280;7976;52.526;13.326;2023-04-21T10:05:26;101423.13;;;18.60;47.26
15750;BME280;7976;52.526;13.326;2023-04-21T10:07:55;101425.25;;;18.69;46.72
15750;BME280;7976;52.526;13.326;2023-04-21T10:10:25;101423.84;;;18.78;45.59
15750;BME280;7976;52.526;13.326;2023-04-21T10:12:54;101421.75;;;18.83;46.59
15750;BME280;7976;52.526;13.326;2023-04-21T10:15:32;101415.16;;;18.90;47.29
15750;BME280;7976;52.526;13.326;2023-04-21T10:18:15;101412.69;;;19.01;46.87
15750;BME280;7976;52.526;13.326;2023-04-21T10:20:57;101416.47;;;19.11;46.33
15750;BME280;7976;52.526;13.326;2023-04-21T10:23:29;101410.63;;;19.20;45.16
15750;BME280;7976;52.526;13.326;2023-04-21T10:26:06;101401.50;;;19.24;45.35
15750;BME280;7976;52.526;13.326;2023-04-21T10:28:55;101402.25;;;19.26;44.74
15750;BME280;7976;52.526;13.326;2023-04-21T10:31:30;101397.44;;;19.33;44.96
15750;BME280;7976;52.526;13.326;2023-04-21T10:34:19;101394.22;;;19.42;44.37
15750;BME280;7976;52.526;13.326;2023-04-21T10:39:33;101409.66;;;19.49;42.22
15750;BME280;7976;52.526;13.326;2023-04-21T10:42:21;101389.38;;;19.48;42.05
15750;BME280;7976;52.526;13.326;2023-04-21T10:45:12;101386.72;;;19.48;41.81
15750;BME280;7976;52.526;13.326;2023-04-21T10:47:45;101392.59;;;19.53;41.86
15750;BME280;7976;52.526;13.326;2023-04-21T10:50:20;101378.91;;;19.59;41.22
15750;BME280;7976;52.526;13.326;2023-04-21T10:52:54;101371.31;;;19.67;41.17
15750;BME280;7976;52.526;13.326;2023-04-21T10:55:26;101373.56;;;19.73;41.14
15750;BME280;7976;52.526;13.326;2023-04-21T10:57:53;101371.66;;;19.75;41.12
15750;BME280;7976;52.526;13.326;2023-04-21T11:00:23;101366.16;;;19.78;41.25
15750;BME280;7976;52.526;13.326;2023-04-21T11:02:59;101371.06;;;19.84;40.38
15750;BME280;7976;52.526;13.326;2023-04-21T11:05:29;101350.75;;;19.83;40.92
15750;BME280;7976;52.526;13.326;2023-04-21T11:08:11;101360.16;;;19.89;41.07
15750;BME280;7976;52.526;13.326;2023-04-21T11:10:49;101371.44;;;19.92;40.25
15750;BME280;7976;52.526;13.326;2023-04-21T11:13:19;101358.41;;;19.88;40.07
15750;BME280;7976;52.526;13.326;2023-04-21T11:16:04;101348.09;;;19.83;40.62
15750;BME280;7976;52.526;13.326;2023-04-21T11:18:37;101345.56;;;19.82;41.15
15750;BME280;7976;52.526;13.326;2023-04-21T11:21:13;101346.09;;;19.87;40.92
15750;BME280;7976;52.526;13.326;2023-04-21T11:23:51;101345.13;;;19.88;40.66
15750;BME280;7976;52.526;13.326;2023-04-21T11:26:28;101334.13;;;19.94;40.11
15750;BME280;7976;52.526;13.326;2023-04-21T11:29:00;101333.69;;;20.00;40.18
15750;BME280;7976;52.526;13.326;2023-04-21T11:31:31;101329.38;;;20.12;40.01
15750;BME280;7976;52.526;13.326;2023-04-21T11:33:59;101334.31;;;20.18;39.84
15750;BME280;7976;52.526;13.326;2023-04-21T11:36:26;101325.59;;;20.16;39.11
15750;BME280;7976;52.526;13.326;2023-04-21T11:38:53;101321.19;;;20.15;39.11
15750;BME280;7976;52.526;13.326;2023-04-21T11:41:21;101341.63;;;20.14;39.09
15750;BME280;7976;52.526;13.326;2023-04-21T11:43:49;101321.38;;;20.12;39.00
15750;BME280;7976;52.526;13.326;2023-04-21T11:46:17;101326.81;;;20.10;39.31
15750;BME280;7976;52.526;13.326;2023-04-21T11:48:58;101331.16;;;20.11;39.71
15750;BME280;7976;52.526;13.326;2023-04-21T11:51:25;101323.84;;;20.15;39.89
15750;BME280;7976;52.526;13.326;2023-04-21T11:53:53;101322.72;;;20.19;39.59
15750;BME280;7976;52.526;13.326;2023-04-21T11:56:20;101325.66;;;20.14;39.31
15750;BME280;7976;52.526;13.326;2023-04-21T11:58:49;101318.94;;;20.09;39.14
15750;BME280;7976;52.526;13.326;2023-04-21T12:01:18;101315.03;;;20.14;38.49
15750;BME280;7976;52.526;13.326;2023-04-21T12:03:52;101303.03;;;20.21;37.73
15750;BME280;7976;52.526;13.326;2023-04-21T12:06:21;101317.09;;;20.23;38.54
15750;BME280;7976;52.526;13.326;2023-04-21T12:08:54;101308.72;;;20.29;38.71
15750;BME280;7976;52.526;13.326;2023-04-21T12:11:22;101297.97;;;20.31;38.98
15750;BME280;7976;52.526;13.326;2023-04-21T12:13:49;101292.31;;;20.35;38.84
15750;BME280;7976;52.526;13.326;2023-04-21T12:16:17;101306.91;;;20.42;39.02
15750;BME280;7976;52.526;13.326;2023-04-21T12:18:43;101300.84;;;20.53;39.29
15750;BME280;7976;52.526;13.326;2023-04-21T12:21:14;101300.41;;;20.59;39.08
15750;BME280;7976;52.526;13.326;2023-04-21T12:23:41;101304.97;;;20.57;38.61
15750;BME280;7976;52.526;13.326;2023-04-21T12:26:09;101298.19;;;20.53;38.11
15750;BME280;7976;52.526;13.326;2023-04-21T12:28:36;101284.16;;;20.51;37.69
15750;BME280;7976;52.526;13.326;2023-04-21T12:31:04;101291.47;;;20.47;38.46
15750;BME280;7976;52.526;13.326;2023-04-21T12:33:31;101274.66;;;20.47;38.83
15750;BME280;7976;52.526;13.326;2023-04-21T12:35:58;101275.84;;;20.43;38.42
15750;BME280;7976;52.526;13.326;2023-04-21T12:38:26;101275.50;;;20.35;38.08
15750;BME280;7976;52.526;13.326;2023-04-21T12:40:53;101288.28;;;20.42;38.10
15750;BME280;7976;52.526;13.326;2023-04-21T12:43:20;101278.06;;;20.49;38.48
15750;BME280;7976;52.526;13.326;2023-04-21T12:45:48;101269.56;;;20.56;38.67
15750;BME280;7976;52.526;13.326;2023-04-21T12:48:15;101274.56;;;20.61;38.84
15750;BME280;7976;52.526;13.326;2023-04-21T12:50:41;101261.78;;;20.66;38.90
15750;BME280;7976;52.526;13.326;2023-04-21T12:53:08;101254.22;;;20.60;38.78
15750;BME280;7976;52.526;13.326;2023-04-21T12:55:36;101249.34;;;20.41;38.95
15750;BME280;7976;52.526;13.326;2023-04-21T12:58:03;101253.16;;;20.25;39.65
15750;BME280;7976;52.526;13.326;2023-04-21T13:00:30;101251.53;;;20.10;39.83